sensor_id;sensor_type;location;lat;lon;timestamp;pressure;altitude;pressure_sealevel;temperature;humidity
85812;BME280;76886;52.146;20.718;2024-03-29T00:00:30;98820;;;10.2;64.1
85812;BME280;76886;52.146;20.718;2024-03-29T00:01:30;98820;;;10.2;65.4
85812;BME280;76886;52.146;20.718;2024-03-29T00:02:30;98820;;;10.1;65.9
85812;BME280;76886;52.146;20.718;2024-03-29T00:03:30;98830;;;10.0;66.0
85812;BME280;76886;52.146;20.718;2024-03-29T00:04:30;98830;;;9.9;67.5
85812;BME280;76886;52.146;20.718;2024-03-29T00:05:30;98830;;;9.9;67.2
85812;BME280;76886;52.146;20.718;2024-03-29T00:06:30;98830;;;10.1;66.8
85812;BME280;76886;52.146;20.718;2024-03-29T00:07:30;98830;;;10.0;65.7
85812;BME280;76886;52.146;20.718;2024-03-29T00:08:30;98830;;;10.0;65.7
85812;BME280;76886;52.146;20.718;2024-03-29T00:09:30;98840;;;10.0;66.8
85812;BME280;76886;52.146;20.718;2024-03-29T00:10:30;98840;;;9.9;65.5
85812;BME280;76886;52.146;20.718;2024-03-29T00:11:30;98830;;;9.8;64.4
85812;BME280;76886;52.146;20.718;2024-03-29T00:12:30;98840;;;9.9;65.5
85812;BME280;76886;52.146;20.718;2024-03-29T00:13:30;98840;;;10.0;66.2
85812;BME280;76886;52.146;20.718;2024-03-29T00:14:31;98840;;;9.8;65.5
85812;BME280;76886;52.146;20.718;2024-03-29T00:15:31;98840;;;9.8;65.4
85812;BME280;76886;52.146;20.718;2024-03-29T00:16:30;98840;;;10.0;64.0
85812;BME280;76886;52.146;20.718;2024-03-29T00:17:30;98850;;;10.2;63.4
85812;BME280;76886;52.146;20.718;2024-03-29T00:18:30;98850;;;10.1;64.9
85812;BME280;76886;52.146;20.718;2024-03-29T00:19:30;98850;;;10.0;67.2
85812;BME280;76886;52.146;20.718;2024-03-29T00:20:30;98850;;;10.1;65.1
85812;BME280;76886;52.146;20.718;2024-03-29T00:21:30;98850;;;10.0;65.8
85812;BME280;76886;52.146;20.718;2024-03-29T00:22:30;98860;;;9.8;66.3
85812;BME280;76886;52.146;20.718;2024-03-29T00:23:30;98860;;;9.7;67.1
85812;BME280;76886;52.146;20.718;2024-03-29T00:24:30;98860;;;9.7;66.5
85812;BME280;76886;52.146;20.718;2024-03-29T00:25:30;98870;;;9.7;66.5
85812;BME280;76886;52.146;20.718;2024-03-29T00:26:30;98870;;;9.8;66.6
85812;BME280;76886;52.146;20.718;2024-03-29T00:27:30;98870;;;9.9;65.8
85812;BME280;76886;52.146;20.718;2024-03-29T00:28:30;98870;;;9.8;65.6
85812;BME280;76886;52.146;20.718;2024-03-29T00:29:30;98870;;;9.9;66.1
85812;BME280;76886;52.146;20.718;2024-03-29T00:30:30;98880;;;9.9;66.1
85812;BME280;76886;52.146;20.718;2024-03-29T00:31:30;98870;;;9.8;65.7
85812;BME280;76886;52.146;20.718;2024-03-29T00:32:30;98880;;;9.7;67.6
85812;BME280;76886;52.146;20.718;2024-03-29T00:33:30;98880;;;9.6;67.2
85812;BME280;76886;52.146;20.718;2024-03-29T00:34:30;98880;;;9.5;67.7
85812;BME280;76886;52.146;20.718;2024-03-29T00:35:30;98890;;;9.5;68.1
85812;BME280;76886;52.146;20.718;2024-03-29T00:36:30;98890;;;9.5;69.7
85812;BME280;76886;52.146;20.718;2024-03-29T00:37:30;98890;;;9.6;69.5
85812;BME280;76886;52.146;20.718;2024-03-29T00:38:30;98900;;;9.5;69.5
85812;BME280;76886;52.146;20.718;2024-03-29T00:39:30;98900;;;9.4;70.0
85812;BME280;76886;52.146;20.718;2024-03-29T00:40:30;98900;;;9.3;70.6
85812;BME280;76886;52.146;20.718;2024-03-29T00:41:30;98900;;;9.3;71.5
85812;BME280;76886;52.146;20.718;2024-03-29T00:42:30;98910;;;9.2;70.8
85812;BME280;76886;52.146;20.718;2024-03-29T00:43:30;98910;;;9.2;71.9
85812;BME280;76886;52.146;20.718;2024-03-29T00:44:30;98910;;;9.1;71.9
85812;BME280;76886;52.146;20.718;2024-03-29T00:45:30;98910;;;9.1;73.4
85812;BME280;76886;52.146;20.718;2024-03-29T00:46:30;98910;;;9.1;71.8
85812;BME280;76886;52.146;20.718;2024-03-29T00:47:30;98910;;;9.1;72.1
85812;BME280;76886;52.146;20.718;2024-03-29T00:48:30;98920;;;9.1;71.7
85812;BME280;76886;52.146;20.718;2024-03-29T00:49:30;98920;;;9.2;71.9
85812;BME280;76886;52.146;20.718;2024-03-29T00:50:30;98920;;;9.2;73.6
85812;BME280;76886;52.146;20.718;2024-03-29T00:51:30;98920;;;9.2;72.3
85812;BME280;76886;52.146;20.718;2024-03-29T00:52:30;98920;;;9.2;70.8
85812;BME280;76886;52.146;20.718;2024-03-29T00:53:30;98920;;;9.2;70.4
85812;BME280;76886;52.146;20.718;2024-03-29T00:54:30;98930;;;9.3;69.8
85812;BME280;76886;52.146;20.718;2024-03-29T00:55:30;98920;;;9.3;70.3
85812;BME280;76886;52.146;20.718;2024-03-29T00:56:30;98920;;;9.3;70.5
85812;BME280;76886;52.146;20.718;2024-03-29T00:57:30;98930;;;9.3;69.0
85812;BME280;76886;52.146;20.718;2024-03-29T00:58:30;98930;;;9.3;68.2
85812;BME280;76886;52.146;20.718;2024-03-29T00:59:30;98930;;;9.5;68.7
85812;BME280;76886;52.146;20.718;2024-03-29T01:00:30;98930;;;9.4;67.4
85812;BME280;76886;52.146;20.718;2024-03-29T01:01:30;98930;;;9.3;68.6
85812;BME280;76886;52.146;20.718;2024-03-29T01:02:30;98940;;;9.3;68.5
85812;BME280;76886;52.146;20.718;2024-03-29T01:03:30;98940;;;9.4;69.4
85812;BME280;76886;52.146;20.718;2024-03-29T01:04:30;98940;;;9.3;67.8
85812;BME280;76886;52.146;20.718;2024-03-29T01:05:30;98940;;;9.3;67.6
85812;BME280;76886;52.146;20.718;2024-03-29T01:06:30;98940;;;9.4;66.3
85812;BME280;76886;52.146;20.718;2024-03-29T01:07:30;98940;;;9.4;67.2
85812;BME280;76886;52.146;20.718;2024-03-29T01:08:30;98950;;;9.4;66.8
85812;BME280;76886;52.146;20.718;2024-03-29T01:09:30;98950;;;9.4;65.7
85812;BME280;76886;52.146;20.718;2024-03-29T01:10:30;98950;;;9.5;64.8
85812;BME280;76886;52.146;20.718;2024-03-29T01:11:30;98950;;;9.5;66.5
85812;BME280;76886;52.146;20.718;2024-03-29T01:12:30;98960;;;9.5;64.5
85812;BME280;76886;52.146;20.718;2024-03-29T01:13:30;98960;;;9.5;63.7
85812;BME280;76886;52.146;20.718;2024-03-29T01:14:30;98960;;;9.6;64.7
85812;BME280;76886;52.146;20.718;2024-03-29T01:15:30;98960;;;9.6;63.8
85812;BME280;76886;52.146;20.718;2024-03-29T01:16:30;98970;;;9.6;66.0
85812;BME280;76886;52.146;20.718;2024-03-29T01:17:30;98970;;;9.5;66.5
85812;BME280;76886;52.146;20.718;2024-03-29T01:18:30;98970;;;9.5;63.9
85812;BME280;76886;52.146;20.718;2024-03-29T01:19:30;98980;;;9.6;65.2
85812;BME280;76886;52.146;20.718;2024-03-29T01:20:30;98980;;;9.6;64.2
85812;BME280;76886;52.146;20.718;2024-03-29T01:21:30;98990;;;9.5;64.3
85812;BME280;76886;52.146;20.718;2024-03-29T01:22:30;98990;;;9.4;64.4
85812;BME280;76886;52.146;20.718;2024-03-29T01:23:30;98990;;;9.5;65.5
85812;BME280;76886;52.146;20.718;2024-03-29T01:24:30;98990;;;9.6;64.5
85812;BME280;76886;52.146;20.718;2024-03-29T01:25:30;98990;;;9.6;63.8
85812;BME280;76886;52.146;20.718;2024-03-29T01:26:30;98990;;;9.7;63.8
85812;BME280;76886;52.146;20.718;2024-03-29T01:27:30;99000;;;9.8;62.3
85812;BME280;76886;52.146;20.718;2024-03-29T01:28:30;99000;;;9.8;62.2
85812;BME280;76886;52.146;20.718;2024-03-29T01:29:30;99000;;;9.8;62.6
85812;BME280;76886;52.146;20.718;2024-03-29T01:30:30;99000;;;9.8;62.1
85812;BME280;76886;52.146;20.718;2024-03-29T01:31:30;99010;;;9.9;62.1
85812;BME280;76886;52.146;20.718;2024-03-29T01:32:30;99000;;;9.9;61.4
85812;BME280;76886;52.146;20.718;2024-03-29T01:33:30;99010;;;9.8;61.6
85812;BME280;76886;52.146;20.718;2024-03-29T01:34:30;99010;;;9.8;63.1
85812;BME280;76886;52.146;20.718;2024-03-29T01:35:30;99010;;;9.8;63.3
85812;BME280;76886;52.146;20.718;2024-03-29T01:36:30;99020;;;9.8;63.3
85812;BME280;76886;52.146;20.718;2024-03-29T01:37:30;99020;;;9.8;63.4
85812;BME280;76886;52.146;20.718;2024-03-29T01:38:30;99020;;;9.7;63.6
85812;BME280;76886;52.146;20.718;2024-03-29T01:39:30;99030;;;9.7;64.3
85812;BME280;76886;52.146;20.718;2024-03-29T01:40:30;99030;;;9.7;63.2
85812;BME280;76886;52.146;20.718;2024-03-29T01:41:30;99020;;;9.8;64.1
85812;BME280;76886;52.146;20.718;2024-03-29T01:42:30;99020;;;9.8;62.3
85812;BME280;76886;52.146;20.718;2024-03-29T01:43:30;99020;;;9.9;62.6
85812;BME280;76886;52.146;20.718;2024-03-29T01:44:30;99020;;;9.8;64.0
85812;BME280;76886;52.146;20.718;2024-03-29T01:45:30;99020;;;9.9;63.1
85812;BME280;76886;52.146;20.718;2024-03-29T01:46:30;99020;;;10.1;63.1
85812;BME280;76886;52.146;20.718;2024-03-29T01:47:30;99030;;;10.1;62.3
85812;BME280;76886;52.146;20.718;2024-03-29T01:48:30;99020;;;10.2;62.1
85812;BME280;76886;52.146;20.718;2024-03-29T01:49:30;99030;;;10.3;61.5
85812;BME280;76886;52.146;20.718;2024-03-29T01:50:30;99030;;;10.2;62.6
85812;BME280;76886;52.146;20.718;2024-03-29T01:51:30;99030;;;10.0;61.8
85812;BME280;76886;52.146;20.718;2024-03-29T01:52:30;99030;;;9.9;62.2
85812;BME280;76886;52.146;20.718;2024-03-29T01:53:30;99040;;;9.9;64.1
85812;BME280;76886;52.146;20.718;2024-03-29T01:54:30;99040;;;9.9;64.2
85812;BME280;76886;52.146;20.718;2024-03-29T01:55:30;99040;;;10.3;63.0
85812;BME280;76886;52.146;20.718;2024-03-29T01:56:30;99040;;;10.4;61.8
85812;BME280;76886;52.146;20.718;2024-03-29T01:57:30;99040;;;10.4;62.0
85812;BME280;76886;52.146;20.718;2024-03-29T01:58:30;99040;;;10.3;62.9
85812;BME280;76886;52.146;20.718;2024-03-29T01:59:30;99040;;;10.1;61.2
85812;BME280;76886;52.146;20.718;2024-03-29T02:00:30;99050;;;10.1;60.9
85812;BME280;76886;52.146;20.718;2024-03-29T02:01:30;99040;;;10.1;61.1
85812;BME280;76886;52.146;20.718;2024-03-29T02:02:30;99050;;;10.0;62.3
85812;BME280;76886;52.146;20.718;2024-03-29T02:03:30;99060;;;10.1;63.2
85812;BME280;76886;52.146;20.718;2024-03-29T02:04:30;99050;;;10.2;63.0
85812;BME280;76886;52.146;20.718;2024-03-29T02:05:30;99060;;;10.2;61.7
85812;BME280;76886;52.146;20.718;2024-03-29T02:06:30;99050;;;10.0;60.9
85812;BME280;76886;52.146;20.718;2024-03-29T02:07:30;99060;;;10.1;62.5
85812;BME280;76886;52.146;20.718;2024-03-29T02:08:30;99060;;;10.2;61.3
85812;BME280;76886;52.146;20.718;2024-03-29T02:09:30;99070;;;10.2;61.4
85812;BME280;76886;52.146;20.718;2024-03-29T02:10:30;99070;;;10.0;62.1
85812;BME280;76886;52.146;20.718;2024-03-29T02:11:30;99070;;;9.7;62.6
85812;BME280;76886;52.146;20.718;2024-03-29T02:12:30;99070;;;9.8;63.7
85812;BME280;76886;52.146;20.718;2024-03-29T02:13:30;99080;;;9.7;63.2
85812;BME280;76886;52.146;20.718;2024-03-29T02:14:30;99080;;;9.6;63.0
85812;BME280;76886;52.146;20.718;2024-03-29T02:15:30;99080;;;9.7;63.0
85812;BME280;76886;52.146;20.718;2024-03-29T02:16:30;99080;;;9.8;63.3
85812;BME280;76886;52.146;20.718;2024-03-29T02:17:30;99090;;;9.8;61.9
85812;BME280;76886;52.146;20.718;2024-03-29T02:18:30;99090;;;9.8;62.7
85812;BME280;76886;52.146;20.718;2024-03-29T02:19:30;99090;;;9.8;62.8
85812;BME280;76886;52.146;20.718;2024-03-29T02:20:30;99100;;;9.7;62.4
85812;BME280;76886;52.146;20.718;2024-03-29T02:21:30;99100;;;9.7;63.7
85812;BME280;76886;52.146;20.718;2024-03-29T02:22:30;99100;;;9.6;62.3
85812;BME280;76886;52.146;20.718;2024-03-29T02:23:30;99100;;;9.6;62.2
85812;BME280;76886;52.146;20.718;2024-03-29T02:24:31;99100;;;9.6;62.6
85812;BME280;76886;52.146;20.718;2024-03-29T02:25:30;99110;;;9.5;64.2
85812;BME280;76886;52.146;20.718;2024-03-29T02:26:30;99100;;;9.5;63.4
85812;BME280;76886;52.146;20.718;2024-03-29T02:27:30;99110;;;9.5;62.9
85812;BME280;76886;52.146;20.718;2024-03-29T02:28:30;99110;;;9.6;62.4
85812;BME280;76886;52.146;20.718;2024-03-29T02:29:30;99110;;;9.6;62.5
85812;BME280;76886;52.146;20.718;2024-03-29T02:30:30;99120;;;9.5;64.2
85812;BME280;76886;52.146;20.718;2024-03-29T02:31:30;99120;;;9.6;63.6
85812;BME280;76886;52.146;20.718;2024-03-29T02:32:30;99120;;;9.5;62.4
85812;BME280;76886;52.146;20.718;2024-03-29T02:33:30;99130;;;9.4;65.3
85812;BME280;76886;52.146;20.718;2024-03-29T02:34:30;99120;;;9.3;62.7
85812;BME280;76886;52.146;20.718;2024-03-29T02:35:30;99130;;;9.4;63.6
85812;BME280;76886;52.146;20.718;2024-03-29T02:36:30;99130;;;9.4;63.9
85812;BME280;76886;52.146;20.718;2024-03-29T02:37:30;99140;;;9.4;62.6
85812;BME280;76886;52.146;20.718;2024-03-29T02:38:30;99130;;;9.4;62.1
85812;BME280;76886;52.146;20.718;2024-03-29T02:39:30;99140;;;9.4;62.2
85812;BME280;76886;52.146;20.718;2024-03-29T02:40:30;99140;;;9.4;64.5
85812;BME280;76886;52.146;20.718;2024-03-29T02:41:30;99140;;;9.3;63.5
85812;BME280;76886;52.146;20.718;2024-03-29T02:42:30;99140;;;9.4;62.5
85812;BME280;76886;52.146;20.718;2024-03-29T02:43:30;99150;;;9.4;64.1
85812;BME280;76886;52.146;20.718;2024-03-29T02:44:30;99150;;;9.4;62.5
85812;BME280;76886;52.146;20.718;2024-03-29T02:45:30;99150;;;9.4;62.9
85812;BME280;76886;52.146;20.718;2024-03-29T02:46:30;99150;;;9.4;62.5
85812;BME280;76886;52.146;20.718;2024-03-29T02:47:30;99160;;;9.4;64.2
85812;BME280;76886;52.146;20.718;2024-03-29T02:48:30;99160;;;9.4;63.7
85812;BME280;76886;52.146;20.718;2024-03-29T02:49:30;99160;;;9.3;64.7
85812;BME280;76886;52.146;20.718;2024-03-29T02:50:30;99160;;;9.3;63.7
85812;BME280;76886;52.146;20.718;2024-03-29T02:51:30;99170;;;9.3;64.1
85812;BME280;76886;52.146;20.718;2024-03-29T02:52:30;99170;;;9.3;62.8
85812;BME280;76886;52.146;20.718;2024-03-29T02:53:30;99170;;;9.4;63.3
85812;BME280;76886;52.146;20.718;2024-03-29T02:54:30;99170;;;9.4;63.0
85812;BME280;76886;52.146;20.718;2024-03-29T02:55:30;99170;;;9.4;63.3
85812;BME280;76886;52.146;20.718;2024-03-29T02:56:30;99170;;;9.4;62.9
85812;BME280;76886;52.146;20.718;2024-03-29T02:57:30;99170;;;9.4;63.2
85812;BME280;76886;52.146;20.718;2024-03-29T02:58:30;99170;;;9.4;64.6
85812;BME280;76886;52.146;20.718;2024-03-29T02:59:30;99180;;;9.4;62.8
85812;BME280;76886;52.146;20.718;2024-03-29T03:00:30;99170;;;9.3;62.4
85812;BME280;76886;52.146;20.718;2024-03-29T03:01:30;99170;;;9.4;62.7
85812;BME280;76886;52.146;20.718;2024-03-29T03:02:30;99170;;;9.4;63.0
85812;BME280;76886;52.146;20.718;2024-03-29T03:03:30;99170;;;9.3;64.2
85812;BME280;76886;52.146;20.718;2024-03-29T03:04:30;99180;;;9.2;64.1
85812;BME280;76886;52.146;20.718;2024-03-29T03:05:30;99180;;;9.2;64.4
85812;BME280;76886;52.146;20.718;2024-03-29T03:06:30;99180;;;9.2;63.9
85812;BME280;76886;52.146;20.718;2024-03-29T03:07:30;99190;;;9.2;63.5
85812;BME280;76886;52.146;20.718;2024-03-29T03:08:30;99190;;;9.3;63.5
85812;BME280;76886;52.146;20.718;2024-03-29T03:09:30;99200;;;9.3;63.2
85812;BME280;76886;52.146;20.718;2024-03-29T03:10:30;99200;;;9.3;63.9
85812;BME280;76886;52.146;20.718;2024-03-29T03:11:30;99200;;;9.3;64.2
85812;BME280;76886;52.146;20.718;2024-03-29T03:12:30;99210;;;9.3;63.3
85812;BME280;76886;52.146;20.718;2024-03-29T03:13:30;99210;;;9.2;64.2
85812;BME280;76886;52.146;20.718;2024-03-29T03:14:30;99210;;;9.2;64.3
85812;BME280;76886;52.146;20.718;2024-03-29T03:15:30;99210;;;9.2;63.8
85812;BME280;76886;52.146;20.718;2024-03-29T03:16:30;99220;;;9.2;63.1
85812;BME280;76886;52.146;20.718;2024-03-29T03:17:30;99220;;;9.1;63.3
85812;BME280;76886;52.146;20.718;2024-03-29T03:18:30;99220;;;9.2;63.1
85812;BME280;76886;52.146;20.718;2024-03-29T03:19:30;99220;;;9.1;63.3
85812;BME280;76886;52.146;20.718;2024-03-29T03:20:30;99220;;;9.2;63.0
85812;BME280;76886;52.146;20.718;2024-03-29T03:21:30;99220;;;9.2;62.8
85812;BME280;76886;52.146;20.718;2024-03-29T03:22:30;99230;;;9.2;63.1
85812;BME280;76886;52.146;20.718;2024-03-29T03:23:30;99230;;;9.2;62.8
85812;BME280;76886;52.146;20.718;2024-03-29T03:24:30;99230;;;9.2;63.3
85812;BME280;76886;52.146;20.718;2024-03-29T03:25:30;99230;;;9.2;62.7
85812;BME280;76886;52.146;20.718;2024-03-29T03:26:30;99230;;;9.2;64.2
85812;BME280;76886;52.146;20.718;2024-03-29T03:27:30;99240;;;9.1;63.8
85812;BME280;76886;52.146;20.718;2024-03-29T03:28:30;99240;;;9.1;63.7
85812;BME280;76886;52.146;20.718;2024-03-29T03:29:30;99240;;;9.1;63.0
85812;BME280;76886;52.146;20.718;2024-03-29T03:30:30;99240;;;9.1;63.3
85812;BME280;76886;52.146;20.718;2024-03-29T03:31:30;99240;;;9.0;63.9
85812;BME280;76886;52.146;20.718;2024-03-29T03:32:30;99240;;;9.0;63.1
85812;BME280;76886;52.146;20.718;2024-03-29T03:33:30;99250;;;8.9;64.4
85812;BME280;76886;52.146;20.718;2024-03-29T03:34:30;99250;;;9.0;64.3
85812;BME280;76886;52.146;20.718;2024-03-29T03:35:30;99250;;;8.9;64.7
85812;BME280;76886;52.146;20.718;2024-03-29T03:36:30;99250;;;8.9;64.4
85812;BME280;76886;52.146;20.718;2024-03-29T03:37:30;99260;;;8.8;64.1
85812;BME280;76886;52.146;20.718;2024-03-29T03:38:30;99260;;;8.8;63.6
85812;BME280;76886;52.146;20.718;2024-03-29T03:39:30;99270;;;8.9;65.2
85812;BME280;76886;52.146;20.718;2024-03-29T03:40:30;99270;;;8.8;64.4
85812;BME280;76886;52.146;20.718;2024-03-29T03:41:30;99270;;;8.8;64.5
85812;BME280;76886;52.146;20.718;2024-03-29T03:42:30;99260;;;8.8;64.2
85812;BME280;76886;52.146;20.718;2024-03-29T03:43:30;99270;;;8.8;63.3
85812;BME280;76886;52.146;20.718;2024-03-29T03:44:30;99270;;;8.9;63.7
85812;BME280;76886;52.146;20.718;2024-03-29T03:45:33;99270;;;8.8;64.1
85812;BME280;76886;52.146;20.718;2024-03-29T03:46:30;99270;;;8.8;64.3
85812;BME280;76886;52.146;20.718;2024-03-29T03:47:30;99270;;;8.8;64.0
85812;BME280;76886;52.146;20.718;2024-03-29T03:48:30;99270;;;8.7;63.8
85812;BME280;76886;52.146;20.718;2024-03-29T03:49:30;99270;;;8.7;63.3
85812;BME280;76886;52.146;20.718;2024-03-29T03:50:30;99270;;;8.8;63.3
85812;BME280;76886;52.146;20.718;2024-03-29T03:51:30;99270;;;8.8;63.7
85812;BME280;76886;52.146;20.718;2024-03-29T03:52:30;99270;;;8.8;63.1
85812;BME280;76886;52.146;20.718;2024-03-29T03:53:30;99270;;;8.7;64.1
85812;BME280;76886;52.146;20.718;2024-03-29T03:54:30;99280;;;8.9;63.8
85812;BME280;76886;52.146;20.718;2024-03-29T03:55:30;99270;;;9.0;63.4
85812;BME280;76886;52.146;20.718;2024-03-29T03:56:30;99280;;;9.1;62.5
85812;BME280;76886;52.146;20.718;2024-03-29T03:57:30;99280;;;9.2;62.7
85812;BME280;76886;52.146;20.718;2024-03-29T03:58:30;99280;;;9.1;63.2
85812;BME280;76886;52.146;20.718;2024-03-29T03:59:30;99280;;;9.0;62.3
85812;BME280;76886;52.146;20.718;2024-03-29T04:00:30;99280;;;8.8;63.3
85812;BME280;76886;52.146;20.718;2024-03-29T04:01:30;99290;;;8.7;64.4
85812;BME280;76886;52.146;20.718;2024-03-29T04:02:30;99290;;;8.6;63.9
85812;BME280;76886;52.146;20.718;2024-03-29T04:03:30;99290;;;8.6;63.3
85812;BME280;76886;52.146;20.718;2024-03-29T04:04:30;99290;;;8.6;63.6
85812;BME280;76886;52.146;20.718;2024-03-29T04:05:30;99290;;;8.6;64.2
85812;BME280;76886;52.146;20.718;2024-03-29T04:06:30;99290;;;8.6;63.9
85812;BME280;76886;52.146;20.718;2024-03-29T04:07:30;99290;;;8.6;64.7
85812;BME280;76886;52.146;20.718;2024-03-29T04:08:30;99280;;;8.6;63.9
85812;BME280;76886;52.146;20.718;2024-03-29T04:09:30;99290;;;8.5;63.6
85812;BME280;76886;52.146;20.718;2024-03-29T04:10:30;99290;;;8.6;63.5
85812;BME280;76886;52.146;20.718;2024-03-29T04:11:30;99290;;;8.7;63.9
85812;BME280;76886;52.146;20.718;2024-03-29T04:12:30;99300;;;8.8;63.7
85812;BME280;76886;52.146;20.718;2024-03-29T04:13:30;99300;;;8.7;62.9
85812;BME280;76886;52.146;20.718;2024-03-29T04:14:30;99310;;;8.7;62.9
85812;BME280;76886;52.146;20.718;2024-03-29T04:15:30;99310;;;8.7;63.4
85812;BME280;76886;52.146;20.718;2024-03-29T04:16:30;99310;;;8.7;62.8
85812;BME280;76886;52.146;20.718;2024-03-29T04:17:30;99310;;;8.8;62.7
85812;BME280;76886;52.146;20.718;2024-03-29T04:18:30;99310;;;8.8;63.0
85812;BME280;76886;52.146;20.718;2024-03-29T04:19:30;99310;;;8.7;62.7
85812;BME280;76886;52.146;20.718;2024-03-29T04:20:30;99310;;;8.7;63.4
85812;BME280;76886;52.146;20.718;2024-03-29T04:21:30;99310;;;8.7;63.2
85812;BME280;76886;52.146;20.718;2024-03-29T04:22:30;99310;;;8.9;62.8
85812;BME280;76886;52.146;20.718;2024-03-29T04:23:30;99320;;;8.9;63.3
85812;BME280;76886;52.146;20.718;2024-03-29T04:24:30;99310;;;9.0;62.3
85812;BME280;76886;52.146;20.718;2024-03-29T04:25:30;99320;;;9.1;61.9
85812;BME280;76886;52.146;20.718;2024-03-29T04:26:30;99320;;;8.9;63.4
85812;BME280;76886;52.146;20.718;2024-03-29T04:27:30;99320;;;8.9;63.4
85812;BME280;76886;52.146;20.718;2024-03-29T04:28:30;99320;;;8.9;62.5
85812;BME280;76886;52.146;20.718;2024-03-29T04:29:30;99330;;;9.0;63.0
85812;BME280;76886;52.146;20.718;2024-03-29T04:30:30;99330;;;8.9;63.3
85812;BME280;76886;52.146;20.718;2024-03-29T04:31:30;99330;;;8.6;64.3
85812;BME280;76886;52.146;20.718;2024-03-29T04:32:30;99340;;;8.7;64.5
85812;BME280;76886;52.146;20.718;2024-03-29T04:33:30;99340;;;8.7;64.5
85812;BME280;76886;52.146;20.718;2024-03-29T04:34:30;99340;;;8.7;63.1
85812;BME280;76886;52.146;20.718;2024-03-29T04:35:30;99350;;;8.7;63.0
85812;BME280;76886;52.146;20.718;2024-03-29T04:36:30;99350;;;8.5;64.4
85812;BME280;76886;52.146;20.718;2024-03-29T04:37:30;99350;;;8.6;65.1
85812;BME280;76886;52.146;20.718;2024-03-29T04:38:30;99350;;;8.6;64.5
85812;BME280;76886;52.146;20.718;2024-03-29T04:39:30;99350;;;8.7;64.1
85812;BME280;76886;52.146;20.718;2024-03-29T04:40:30;99350;;;8.5;64.0
85812;BME280;76886;52.146;20.718;2024-03-29T04:41:30;99360;;;8.4;63.6
85812;BME280;76886;52.146;20.718;2024-03-29T04:42:30;99370;;;8.5;64.4
85812;BME280;76886;52.146;20.718;2024-03-29T04:43:30;99370;;;8.5;63.4
85812;BME280;76886;52.146;20.718;2024-03-29T04:44:30;99370;;;8.2;64.5
85812;BME280;76886;52.146;20.718;2024-03-29T04:45:30;99360;;;8.2;64.8
85812;BME280;76886;52.146;20.718;2024-03-29T04:46:30;99370;;;8.1;66.1
85812;BME280;76886;52.146;20.718;2024-03-29T04:47:30;99370;;;8.1;65.5
85812;BME280;76886;52.146;20.718;2024-03-29T04:48:30;99370;;;8.0;64.9
85812;BME280;76886;52.146;20.718;2024-03-29T04:49:30;99370;;;7.9;66.3
85812;BME280;76886;52.146;20.718;2024-03-29T04:50:30;99370;;;7.9;65.7
85812;BME280;76886;52.146;20.718;2024-03-29T04:51:30;99380;;;8.0;66.2
85812;BME280;76886;52.146;20.718;2024-03-29T04:52:30;99380;;;8.1;65.1
85812;BME280;76886;52.146;20.718;2024-03-29T04:53:30;99380;;;8.2;64.8
85812;BME280;76886;52.146;20.718;2024-03-29T04:54:30;99380;;;8.4;64.7
85812;BME280;76886;52.146;20.718;2024-03-29T04:55:30;99380;;;8.4;63.7
85812;BME280;76886;52.146;20.718;2024-03-29T04:56:30;99370;;;8.4;64.5
85812;BME280;76886;52.146;20.718;2024-03-29T04:57:30;99380;;;8.5;64.1
85812;BME280;76886;52.146;20.718;2024-03-29T04:58:30;99370;;;8.4;64.2
85812;BME280;76886;52.146;20.718;2024-03-29T04:59:30;99370;;;8.2;64.2
85812;BME280;76886;52.146;20.718;2024-03-29T05:00:30;99380;;;8.1;65.0
85812;BME280;76886;52.146;20.718;2024-03-29T05:01:30;99380;;;8.2;64.3
85812;BME280;76886;52.146;20.718;2024-03-29T05:02:30;99380;;;8.3;64.8
85812;BME280;76886;52.146;20.718;2024-03-29T05:03:30;99380;;;8.4;64.5
85812;BME280;76886;52.146;20.718;2024-03-29T05:04:30;99380;;;8.4;65.0
85812;BME280;76886;52.146;20.718;2024-03-29T05:05:30;99380;;;8.3;65.2
85812;BME280;76886;52.146;20.718;2024-03-29T05:06:30;99380;;;8.3;64.6
85812;BME280;76886;52.146;20.718;2024-03-29T05:07:30;99380;;;8.3;64.2
85812;BME280;76886;52.146;20.718;2024-03-29T05:08:30;99380;;;8.3;64.8
85812;BME280;76886;52.146;20.718;2024-03-29T05:09:30;99380;;;8.2;66.0
85812;BME280;76886;52.146;20.718;2024-03-29T05:10:30;99380;;;8.3;65.3
85812;BME280;76886;52.146;20.718;2024-03-29T05:11:30;99380;;;8.3;65.4
85812;BME280;76886;52.146;20.718;2024-03-29T05:12:30;99380;;;8.4;65.2
85812;BME280;76886;52.146;20.718;2024-03-29T05:13:30;99380;;;8.2;65.1
85812;BME280;76886;52.146;20.718;2024-03-29T05:14:30;99390;;;8.0;65.8
85812;BME280;76886;52.146;20.718;2024-03-29T05:15:30;99390;;;7.9;66.7
85812;BME280;76886;52.146;20.718;2024-03-29T05:16:30;99390;;;8.2;66.1
85812;BME280;76886;52.146;20.718;2024-03-29T05:17:30;99380;;;8.3;65.2
85812;BME280;76886;52.146;20.718;2024-03-29T05:18:30;99380;;;8.3;64.8
85812;BME280;76886;52.146;20.718;2024-03-29T05:19:30;99390;;;8.2;63.9
85812;BME280;76886;52.146;20.718;2024-03-29T05:20:30;99380;;;8.2;65.0
85812;BME280;76886;52.146;20.718;2024-03-29T05:21:30;99380;;;8.1;63.8
85812;BME280;76886;52.146;20.718;2024-03-29T05:22:30;99380;;;8.0;66.6
85812;BME280;76886;52.146;20.718;2024-03-29T05:23:30;99380;;;7.9;66.9
85812;BME280;76886;52.146;20.718;2024-03-29T05:24:30;99380;;;7.9;67.6
85812;BME280;76886;52.146;20.718;2024-03-29T05:25:30;99380;;;8.0;66.0
85812;BME280;76886;52.146;20.718;2024-03-29T05:26:30;99390;;;8.1;66.0
85812;BME280;76886;52.146;20.718;2024-03-29T05:27:30;99390;;;8.0;66.7
85812;BME280;76886;52.146;20.718;2024-03-29T05:28:30;99390;;;8.1;66.2
85812;BME280;76886;52.146;20.718;2024-03-29T05:29:30;99390;;;8.1;65.4
85812;BME280;76886;52.146;20.718;2024-03-29T05:30:30;99390;;;8.2;64.6
85812;BME280;76886;52.146;20.718;2024-03-29T05:31:30;99380;;;8.1;64.4
85812;BME280;76886;52.146;20.718;2024-03-29T05:32:30;99390;;;8.2;66.4
85812;BME280;76886;52.146;20.718;2024-03-29T05:33:30;99380;;;8.3;66.6
85812;BME280;76886;52.146;20.718;2024-03-29T05:34:30;99390;;;8.2;64.9
85812;BME280;76886;52.146;20.718;2024-03-29T05:35:30;99390;;;8.4;64.7
85812;BME280;76886;52.146;20.718;2024-03-29T05:36:30;99390;;;8.4;64.3
85812;BME280;76886;52.146;20.718;2024-03-29T05:37:30;99390;;;8.4;64.7
85812;BME280;76886;52.146;20.718;2024-03-29T05:38:30;99390;;;8.3;65.8
85812;BME280;76886;52.146;20.718;2024-03-29T05:39:30;99400;;;8.2;67.5